Flight Track Log - Related Links

Times and Time Zones

All times are in EST time to prevent confusion due to time zone crossing. See the EJA829P flight status page for this flight to view local times or setup timezone preferences in your user account.

Time Position Orientation Groundspeed Altitude Reporting Facility
EST Latitude Longitude Course Direction KTS MPH feet Rate Location/Type
Thu 05:54:15 PM 40.2767 -83.0939 83° East 217 250 1,700  Level Indianapolis Center
Thu 05:55:41 PM 40.2872 -82.9831 83° East 225 259 3,000 661 Climbing Indianapolis Center
Thu 05:56:13 PM 40.2908 -82.9522 81° East 224 258 3,000 689 Level Indianapolis Center
Thu 05:56:42 PM 40.2733 -82.9069 117° Southeast 216 249 3,700 968 Climbing Indianapolis Center
Thu 05:57:15 PM 40.2583 -82.8672 116° Southeast 221 254 4,000 273 Climbing Indianapolis Center
Thu 05:57:48 PM 40.2406 -82.8303 122° Southeast 222 255 4,000  Level Indianapolis Center
Thu 05:58:17 PM 40.2289 -82.8008 117° Southeast 220 253 4,000  Level Indianapolis Center
Thu 05:58:49 PM 40.2128 -82.7683 123° Southeast 190 219 4,000  Level Indianapolis Center
Thu 05:59:19 PM 40.2011 -82.7392 118° Southeast 209 241 4,000  Level Indianapolis Center
Thu 05:59:57 PM 40.1944 -82.6942 101° East 194 223 4,000  Level Indianapolis Center
Thu 06:00:21 PM 40.1958 -82.6742 85° East 195 224 4,000  Level Indianapolis Center
Thu 06:00:51 PM 40.1922 -82.6283 96° East 194 223 4,000  Level Indianapolis Center
Thu 06:01:23 PM 40.1922 -82.6017 90° East 195 224 4,000  Level Indianapolis Center
Thu 06:01:58 PM 40.1817 -82.5581 108° East 194 223 4,000  Level Indianapolis Center
Thu 06:02:25 PM 40.1681 -82.5531 164° South 194 223 4,000 -90 Level Indianapolis Center
Thu 06:03:05 PM 40.1306 -82.5228 148° Southeast 195 224 3,900 -484 Descending Indianapolis Center
Thu 06:03:27 PM 40.1208 -82.5017 121° Southeast 201 231 3,500 -1,116 Descending Indianapolis Center
Thu 06:03:48 PM 40.1033 -82.4967 168° South 202 232 3,100 -484 Descending Indianapolis Center
Thu 06:04:29 PM 40.0717 -82.4897 170° South 189 217 3,000 -98 Descending Indianapolis Center
Thu 06:04:49 PM 40.0536 -82.4892 179° South 174 200 3,000  Level Indianapolis Center
Thu 06:05:32 PM 40.0225 -82.4856 175° South 182 209 3,000  Level Indianapolis Center
Thu 06:05:50 PM 40.0053 -82.4900 191° South 175 201 3,000  Level Indianapolis Center
Thu 06:06:34 PM 39.9886 -82.5197 234° Southwest 174 200 3,000  Level Indianapolis Center
Thu 06:07:03 PM 39.9828 -82.5519 257° West 156 180 3,000  Level Indianapolis Center
Thu 06:07:36 PM 39.9814 -82.5747 265° West 160 184 3,000  Level Indianapolis Center
Thu 06:07:52 PM 39.9847 -82.6014 279° West 155 178 3,000  Level Indianapolis Center
Thu 06:08:47 PM 39.9867 -82.6481 273° West 155 178 3,000  Level Indianapolis Center
Thu 06:09:40 PM 39.9917 -82.6975 278° West 154 177 3,000  Level Indianapolis Center
Thu 06:10:00 PM 39.9928 -82.7172 274° West 154 177 3,000 -194 Level Indianapolis Center
Thu 06:10:42 PM 39.9944 -82.7544 273° West 156 180 2,800 -393 Descending Indianapolis Center
Thu 06:11:01 PM 39.9958 -82.7750 275° West 154 177 2,600 -581 Descending Indianapolis Center
Thu 06:11:44 PM 39.9975 -82.8025 275° West 147 169 2,200 -689 Descending Indianapolis Center
Thu 06:12:02 PM 39.9981 -82.8192 272° West 110 127 1,900 -677 Descending Indianapolis Center
Thu 06:12:46 PM 39.9992 -82.8408 274° West 125 144 1,500 -667 Descending Indianapolis Center
Thu 06:12:56 PM 39.9989 -82.8547 269° West 101 116 1,300 -387 Descending Indianapolis Center
Thu 06:13:48 PM 40.0019 -82.8847 278° West 116 133 1,100 -231 Descending Indianapolis Center
Thu 06:15:00 PM 39.9969 -82.8922 270° West  Level Estimated

Login

Don't have an account? Register now (free) for customized features, flight alerts, and more!